コルツォヴォ空港の過去48時間の天気

コルツォヴォ空港 (Ekaterinburg)

現在時刻: 7/5 08:33 +05 (7/5 03:33 UTC) 以下の時間は現地時間です。

過去48時間のMETAR気象情報
時間 風向 風速(m/s) 視程 気温(℃) 湿度(%) 気圧(hPa) 天気現象
5 08:00 8 10km以上 11 67 1012
5 07:30 6 10km以上 11 67 1012
5 07:00 北北西 5 10km以上 10 76 1012
5 06:30 北北西 3 10km以上 10 82 1012
5 06:00 北北西 3 10km以上 9 87 1012
5 05:30 3 10km以上 9 87 1012
5 05:00 北北西 3 10km以上 9 87 1012
5 04:30 北北西 3 10km以上 9 87 1011
5 04:00 北北西 3 10km以上 9 93 1011
5 03:30 4 10km以上 9 93 1011
5 03:00 4 10km以上 10 87 1011
5 02:30 4 10km以上 10 87 1011
5 02:00 4 10km以上 11 82 1011
5 01:30 5 10km以上 10 87 1011
5 01:00 4 10km以上 11 87 1011
5 00:30 5 10km以上 11 87 1011
5 00:00 4 10km以上 10 94 1011
4 23:30 4 10km以上 10 94 1011
4 23:00 4 10km以上 10 94 1011
4 22:30 4 10km以上 10 94 1011
4 22:00 4 10km以上 10 94 1011
4 21:30 5 10km以上 10 100 1011 弱いしゅう雨
4 21:00 北北西 3 10km以上 11 87 1011
4 20:30 3 10km以上 11 87 1011
4 20:00 6 9000m 11 82 1011 弱いしゅう雨
4 19:30 北北東 6 9000m 12 71 1011 弱いしゅう雨
4 19:00 7 10km以上 12 67 1011
4 18:30 7 10km以上 13 62 1010
4 18:00 5 10km以上 13 62 1010
4 17:30 5 10km以上 13 62 1010
4 17:00 5 10km以上 13 58 1010
4 16:30 6 10km以上 13 58 1010
4 16:00 6 10km以上 13 58 1010
4 15:30 7 10km以上 13 58 1010
4 15:00 北北東 7 10km以上 13 54 1010
4 14:30 北北東 7 10km以上 14 55 1010
4 14:00 北北東 9 10km以上 14 55 1010
4 13:30 北北東 8 10km以上 14 51 1010
4 13:00 北北東 7 10km以上 15 55 1010
4 12:30 北北東 8 10km以上 14 59 1009
4 12:00 北北東 8 10km以上 14 59 1009
4 11:30 北北東 7 10km以上 14 63 1009
4 11:00 北北東 6 10km以上 14 63 1009
4 10:30 7 10km以上 14 67 1009
4 10:00 北北東 7 10km以上 14 72 1009
4 09:30 北東 6 10km以上 13 77 1009
4 09:00 北北東 6 10km以上 13 82 1009
4 08:30 北東 6 10km以上 12 88 1009
4 08:00 北北東 6 10km以上 12 88 1009
4 07:30 北北東 5 10km以上 12 88 1009
4 07:00 北北東 6 10km以上 12 94 1009
4 06:30 北北東 6 9000m 12 94 1008
4 06:00 北北東 5 9000m 12 94 1008
4 05:30 北北東 6 9000m 12 94 1008
4 05:00 北北東 8 9000m 12 100 1008
4 04:30 北北東 5 10km以上 12 100 1007
4 04:00 北北東 5 10km以上 13 94 1007
4 03:30 北北東 5 10km以上 13 94 1007 弱いしゅう雨
4 03:00 北北東 4 3700m 13 100 1007 弱いしゅう雨
4 02:30 北東 3 7000m 13 100 1008 弱いしゅう雨
4 02:00 3 9000m 14 94 1008
4 01:30 北北東 3 10km以上 14 88 1008
4 01:00 北北東 3 10km以上 14 88 1008
4 00:30 北東 4 10km以上 14 88 1008
4 00:00 北北東 4 10km以上 15 88 1008
3 23:30 北北東 4 10km以上 15 88 1008
3 23:00 北北東 3 10km以上 15 88 1008
3 22:30 北北東 3 10km以上 16 82 1008
3 22:00 北東 4 10km以上 16 82 1008 弱いしゅう雨
3 21:30 北東 3 10km以上 16 82 1008 弱いしゅう雨
3 21:00 北北東 3 10km以上 17 77 1008
3 20:30 北北東 3 10km以上 17 77 1008
3 20:00 北北東 3 10km以上 18 64 1008
3 19:30 北北東 3 10km以上 19 56 1008
3 19:00 4 10km以上 19 52 1008
3 18:30 5 10km以上 20 53 1007
3 18:00 北北東 4 10km以上 21 49 1008
3 17:30 北北東 5 10km以上 20 60 1008
3 17:00 北北東 5 10km以上 20 60 1008 弱いしゅう雨
3 16:30 北北東 6 10km以上 20 56 1008
3 16:00 北北東 6 10km以上 21 53 1008
3 15:30 北北東 6 10km以上 21 53 1008
3 15:00 北北西 4 10km以上 22 46 1008
3 14:30 3 10km以上 22 46 1008
3 14:00 北北東 4 10km以上 22 46 1008
3 13:30 西北西 3 10km以上 22 41 1008
3 13:00 北北西 3 10km以上 22 43 1008
3 12:30 北北西 4 10km以上 22 41 1008
3 12:00 北北西 3 10km以上 22 41 1008
3 11:30 北西 3 10km以上 23 38 1008
3 11:00 北北西 5 10km以上 23 41 1009
3 10:30 北西 5 10km以上 22 41 1009
3 10:00 西北西 4 10km以上 22 46 1009
3 09:30 西北西 3 10km以上 21 49 1009
3 09:00 西北西 2 10km以上 20 56 1009
USSS 050300Z 36008MPS 320V020 9999 FEW030 11/05 Q1012 R26R/010060 R26L/010060 NOSIG RMK QFE738/0984
USSS 050230Z 36006MPS 330V030 9999 FEW040 11/05 Q1012 R26R/010060 R26L/010060 NOSIG RMK QFE738/0984
USSS 050200Z 34005MPS CAVOK 10/06 Q1012 R26R/010060 R26L/010060 NOSIG RMK QFE738/0984
USSS 050130Z 34003MPS CAVOK 10/07 Q1012 R26R/010060 R26L/010060 NOSIG RMK QFE738/0984
USSS 050100Z 33003MPS 280V360 9999 FEW040 09/07 Q1012 R26R/010060 R26L/010060 NOSIG RMK QFE738/0984
USSS 050030Z 35003MPS 320V020 9999 FEW040 09/07 Q1012 R26R/010060 R26L/010060 NOSIG RMK QFE738/0984
USSS 050000Z 33003MPS CAVOK 09/07 Q1012 R08L/010060 R08R/010060 NOSIG RMK QFE739/0985
USSS 042330Z 34003MPS 310V010 CAVOK 09/07 Q1011 R08L/010060 R08R/010060 NOSIG RMK QFE739/0985
USSS 042300Z 34003MPS 9999 FEW046 09/08 Q1011 R08L/010060 R08R/010060 NOSIG RMK QFE738/0985
USSS 042230Z 35004MPS 9999 FEW046 09/08 Q1011 R08L/010060 R08R/010060 NOSIG RMK QFE738/0985
USSS 042200Z 36004MPS 9999 FEW046 10/08 Q1011 R08L/010060 R08R/010060 NOSIG RMK QFE738/0984
USSS 042130Z 36004MPS 9999 FEW046 10/08 Q1011 R08L/010060 R08R/010060 NOSIG RMK QFE738/0984
USSS 042100Z 36004MPS 9999 FEW046 11/08 Q1011 R08L/010060 R08R/010060 NOSIG RMK QFE738/0985
USSS 042030Z 36005MPS 9999 SCT046 10/08 Q1011 R08L/010060 R08R/010060 NOSIG RMK QFE738/0985
USSS 042000Z 36004MPS 320V030 9999 SCT040 11/09 Q1011 R08L/290035 R08R/010060 NOSIG RMK QFE738/0985
USSS 041930Z 36005MPS 9999 SCT046 11/09 Q1011 R08L/290035 R08R/010060 NOSIG RMK QFE738/0985
USSS 041900Z 36004MPS 330V030 9999 SCT038 10/09 Q1011 R08R/010060 R08L/290035 NOSIG RMK QFE738/0985
USSS 041830Z 35004MPS 9999 SCT033 10/09 Q1011 R08R/290050 R08L/290035 NOSIG RMK QFE738/0985
USSS 041800Z 35004MPS 9999 BKN033 10/09 Q1011 R08R/290050 R08L/290035 NOSIG RMK QFE738/0985
USSS 041730Z 36004MPS 9999 FEW013 BKN034CB 10/09 Q1011 R08R/290050 R08L/290035 NOSIG RMK QFE738/0985
USSS 041700Z 36004MPS 9999 BKN033CB 10/09 Q1011 R08R/290050 R08L/290035 NOSIG RMK QFE738/0985
USSS 041630Z 36005MPS 9999 -SHRA FEW010 BKN030CB 10/10 Q1011 R08R/290050 R08L/290035 NOSIG RMK QFE738/0985
USSS 041600Z 34003MPS 9999 BKN030CB 11/09 Q1011 R08R/290045 R08L/290035 NOSIG RMK QFE738/0985
USSS 041530Z 36003MPS 9999 BKN040CB 11/09 Q1011 R08R/290045 R08L/290035 NOSIG RMK QFE738/0985
USSS 041500Z 36006G11MPS 9000 -SHRA BKN051CB 11/08 Q1011 R08L/290035 R08R/290045 NOSIG RMK QFE738/0985
USSS 041430Z 02006MPS 9000 -SHRA BKN028CB 12/07 Q1011 R08L/010060 R08R/210058 NOSIG RMK QFE738/0984
USSS 041400Z 01007MPS 9999 BKN044 12/06 Q1011 R08L/010060 R08R/210058 NOSIG RMK QFE738/0984
USSS 041330Z 01007MPS 9999 SCT034 13/06 Q1010 R08L/010060 R08R/210058 NOSIG RMK QFE738/0984
USSS 041300Z 01005MPS 9999 BKN041 13/06 Q1010 R08L/010060 R08R/210058 NOSIG RMK QFE738/0984
USSS 041230Z 36005MPS 9999 BKN046 13/06 Q1010 R08L/010060 R08R/210058 NOSIG RMK QFE738/0984
USSS 041200Z 01005MPS 340V040 9999 BKN038 13/05 Q1010 R08L/010060 R08R/210058 NOSIG RMK QFE738/0984
USSS 041130Z 01006MPS 340V050 9999 BKN038 13/05 Q1010 R08L/010060 R08R/210058 NOSIG RMK QFE738/0984
USSS 041100Z 01006MPS 340V040 9999 BKN037 13/05 Q1010 R08L/010060 R08R/210058 NOSIG RMK QFE738/0984
USSS 041030Z 01007MPS 340V040 9999 BKN041 13/05 Q1010 R08L/010060 R08R/210058 NOSIG RMK QFE738/0984
USSS 041000Z 02007MPS 9999 BKN041 13/04 Q1010 R08L/010060 R08R/210058 TEMPO 02009G17MPS RMK QFE738/0984
USSS 040930Z 02007MPS 350V050 9999 BKN038 14/05 Q1010 R08L/010060 R08R/210058 NOSIG RMK QFE738/0984
USSS 040900Z 02009MPS 350V050 9999 BKN040 14/05 Q1010 R08L/010060 R08R/210058 NOSIG RMK QFE737/0983
USSS 040830Z 02008MPS 340V050 9999 BKN042 14/04 Q1010 R08L/010060 R08R/210058 NOSIG RMK QFE737/0983
USSS 040800Z 02007MPS 340V050 9999 BKN046 15/06 Q1010 R08L/010060 R08R/210058 NOSIG RMK QFE737/0983
USSS 040730Z 03008MPS 9999 BKN037 14/06 Q1009 R08L/010060 R08R/210058 NOSIG RMK QFE737/0983
USSS 040700Z 03008MPS 360V070 9999 BKN044 14/06 Q1009 R08L/220060 R08R/210058 NOSIG RMK QFE737/0983
USSS 040630Z 02007MPS 340V050 9999 BKN042 14/07 Q1009 R08L/220060 R08R/210058 NOSIG RMK QFE737/0983
USSS 040600Z 02006MPS 9999 BKN032 14/07 Q1009 R08L/220060 R08R/210058 NOSIG RMK QFE737/0983
USSS 040530Z 01007MPS 9999 BKN028 14/08 Q1009 R08L/220060 R08R/210058 NOSIG RMK QFE737/0983
USSS 040500Z 03007MPS 9999 BKN032 14/09 Q1009 R08L/220060 R08R/210058 NOSIG RMK QFE737/0983
USSS 040430Z 04006MPS 9999 BKN027 13/09 Q1009 R08L/220060 R08R/210058 NOSIG RMK QFE737/0983
USSS 040400Z 03006MPS 9999 BKN024 13/10 Q1009 R08L/220060 R08R/290060 NOSIG RMK QFE737/0983
USSS 040330Z 04006MPS 010V070 9999 OVC020 12/10 Q1009 R08R/290060 R08L/290041 NOSIG RMK QFE737/0982
USSS 040300Z 03006MPS 360V070 9999 OVC020 12/10 Q1009 R08R/290060 R08L/290041 NOSIG RMK QFE737/0982
USSS 040230Z 03005MPS 9999 OVC014 12/10 Q1009 R08R/290060 R08L/290041 NOSIG RMK QFE737/0982
USSS 040200Z 02006MPS 9999 OVC013 12/11 Q1009 R08R/290060 R08L/290035 NOSIG RMK QFE737/0982
USSS 040130Z 02006MPS 9000 OVC008 12/11 Q1008 R08R/290050 R08L/290035 NOSIG RMK QFE736/0982
USSS 040100Z 03005MPS 9000 BKN007 OVC011CB 12/11 Q1008 R08R/290050 R08L/010060 NOSIG RMK QFE736/0982
USSS 040030Z 03006MPS 9000 BKN007 OVC011CB 12/11 Q1008 R08R/290050 R08L/010060 NOSIG RMK QFE736/0981
USSS 040000Z 03008MPS 9000 BKN006 OVC011CB 12/12 Q1008 R08R/290050 R08L/010060 NOSIG RMK QFE736/0981
USSS 032330Z 03005MPS 010V070 9999 BKN006 OVC011CB 12/12 Q1007 R08R/290050 R08L/010060 NOSIG RMK QFE736/0981
USSS 032300Z 03005MPS 9999 BKN008 OVC015CB 13/12 Q1007 R08R/290050 R08L/010060 NOSIG RMK QFE736/0981
USSS 032230Z 03005MPS 9999 -SHRA BKN008 OVC018CB 13/12 Q1007 R08R/290050 R08L/010060 NOSIG RMK QFE736/0981
USSS 032200Z 03004MPS 360V080 3700 -SHRA BKN006 OVC014CB 13/13 Q1007 R08R/290050 R08L/010060 TEMPO 1200 SHRA BKN003 OVC011CB RMK QFE736/0981
USSS 032130Z 05003MPS 010V080 7000 -SHRA BKN009 OVC027CB 13/13 Q1008 R08R/290050 R08L/010060 NOSIG RMK QFE736/0981
USSS 032100Z 01003MPS 9000 OVC012CB 14/13 Q1008 R08R/290050 R08L/010060 NOSIG RMK QFE736/0981
USSS 032030Z 02003MPS 9999 BKN018CB 14/12 Q1008 R08R/290050 R08L/010060 NOSIG RMK QFE736/0981
USSS 032000Z 02003MPS 9999 BKN015CB 14/12 Q1008 R08R/290050 R08L/010060 NOSIG RMK QFE736/0981
USSS 031930Z 04004MPS 9999 BKN015CB 14/12 Q1008 R08R/290050 R08L/010060 NOSIG RMK QFE736/0981
USSS 031900Z 02004MPS 350V050 9999 BKN017CB 15/13 Q1008 R08R/290050 R08L/010060 NOSIG RMK QFE736/0982
USSS 031830Z 02004MPS 9999 BKN014CB 15/13 Q1008 R08R/290050 R08L/010060 NOSIG RMK QFE736/0982
USSS 031800Z 03003MPS 9999 BKN017CB 15/13 Q1008 R26L/290050 R26R/010060 NOSIG RMK QFE735/0981
USSS 031730Z 02003MPS 9999 SCT018CB 16/13 Q1008 R26L/290050 R26R/010060 NOSIG RMK QFE735/0981
USSS 031700Z 04004MPS 9999 -SHRA SCT028CB 16/13 Q1008 R26L/290050 R26R/010060 NOSIG RMK QFE735/0980
USSS 031630Z 05003MPS 020V090 9999 -SHRA SCT040CB 16/13 Q1008 R26L/290035 R26R/010060 TEMPO -TSRA RMK QFE735/0980
USSS 031600Z 02003MPS 9999 SCT040CB 17/13 Q1008 R26L/290050 R26R/010060 TEMPO -TSRA RMK QFE735/0980
USSS 031530Z 02003MPS 9999 SCT040CB 17/13 Q1008 R26L/290050 R26R/010060 NOSIG RMK QFE735/0980
USSS 031500Z 03003MPS 9999 SCT050CB 18/11 Q1008 R26L/010060 R26R/010060 NOSIG RMK QFE735/0980
USSS 031430Z 03003MPS 010V080 9999 SCT050CB 19/10 Q1008 R26L/010060 R26R/010060 NOSIG RMK QFE735/0980
USSS 031400Z 01004MPS 9999 SCT050CB 19/09 Q1008 R26L/010060 R26R/010060 NOSIG RMK QFE735/0980
USSS 031330Z 36005MPS 9999 SCT050CB 20/10 Q1007 R26L/010060 R26R/010060 NOSIG RMK QFE735/0980
USSS 031300Z 02004MPS 9999 SCT050CB 21/10 Q1008 R26L/010060 R26R/010060 NOSIG RMK QFE735/0980
USSS 031230Z 02005MPS 9999 SCT050CB 20/12 Q1008 R26L/290050 R26R/010060 NOSIG RMK QFE735/0980
USSS 031200Z 02005MPS 9999 -SHRA SCT050CB 20/12 Q1008 R26L/010060 R26R/010060 NOSIG RMK QFE735/0980
USSS 031130Z 03006MPS 9999 SCT050CB 20/11 Q1008 R26L/010060 R26R/010060 NOSIG RMK QFE735/0981
USSS 031100Z 02006MPS 9999 SCT050CB 21/11 Q1008 R26L/010060 R26R/010060 NOSIG RMK QFE735/0980
USSS 031030Z 02006MPS 340V050 9999 SCT050CB 21/11 Q1008 R26L/010060 R26R/010060 NOSIG RMK QFE735/0980
USSS 031000Z 34004MPS 320V020 9999 SCT050CB 22/10 Q1008 R26L/010060 R26R/010060 NOSIG RMK QFE735/0980
USSS 030930Z 36003MPS 330V070 9999 SCT050CB 22/10 Q1008 R26L/010060 R26R/010060 NOSIG RMK QFE735/0980
USSS 030900Z 02004MPS 340V040 9999 SCT050CB 22/10 Q1008 R26L/010060 R26R/010060 NOSIG RMK QFE735/0981
USSS 030830Z 29003MPS 9999 SCT050CB 22/08 Q1008 R26L/010060 R26R/010060 NOSIG RMK QFE735/0981
USSS 030800Z 33003MPS 290V360 CAVOK 22/09 Q1008 R26L/010060 R26R/010060 NOSIG RMK QFE736/0981
USSS 030730Z 33004MPS CAVOK 22/08 Q1008 R26L/010060 R26R/010060 NOSIG RMK QFE736/0981
USSS 030700Z 34003MPS 310V010 CAVOK 22/08 Q1008 R26L/010060 R26R/010060 NOSIG RMK QFE736/0981
USSS 030630Z 32003MPS 290V360 CAVOK 23/08 Q1008 R26L/010060 R26R/010060 NOSIG RMK QFE736/0981
USSS 030600Z 34005MPS 290V020 CAVOK 23/09 Q1009 R26L/010060 R26R/010060 NOSIG RMK QFE736/0981
USSS 030530Z 31005MPS 280V350 CAVOK 22/08 Q1009 R26L/010060 R26R/010060 NOSIG RMK QFE736/0981
USSS 030500Z 29004MPS CAVOK 22/10 Q1009 R26L/010060 R26R/010060 NOSIG RMK QFE736/0982
USSS 030430Z 30003MPS 260V350 CAVOK 21/10 Q1009 R26L/010060 R26R/010060 NOSIG RMK QFE736/0982
USSS 030400Z 30002MPS 240V010 CAVOK 20/11 Q1009 R26L/010060 R26R/010060 NOSIG RMK QFE736/0982